Time;durP1;ratioP1;P1;durP2;ratioP2;P2;SDS_P1;SDS_P2;PMS_P1;PMS_P2;Temp;Humidity;BMP_temperature;BMP_pressure;BME280_temperature;BME280_humidity;BME280_pressure;Samples;Min_cycle;Max_cycle;Signal;HPM_P1;HPM_P2
2022/04/01 00:05:03;;;;;;;10.73;9.18;;;;;;;1.11;100.00;96664.59;10357906;28;20503;-60
2022/04/01 00:10:08;;;;;;;10.13;8.73;;;;;;;1.13;100.00;96660.81;10356166;28;20391;-57
2022/04/01 00:15:14;;;;;;;10.43;9.32;;;;;;;1.11;100.00;96672.56;10354844;28;20194;-57
2022/04/01 00:20:18;;;;;;;11.60;9.43;;;;;;;1.09;100.00;96662.09;10357342;28;20044;-58
2022/04/01 00:25:21;;;;;;;10.35;9.35;;;;;;;1.06;100.00;96673.00;10356401;28;20050;-60
2022/04/01 00:30:26;;;;;;;10.88;9.57;;;;;;;1.04;100.00;96667.00;10355508;28;20121;-60
2022/04/01 00:35:31;;;;;;;10.32;9.32;;;;;;;0.99;100.00;96672.72;10355313;28;20560;-59
2022/04/01 00:40:35;;;;;;;9.88;8.70;;;;;;;0.89;100.00;96656.84;10359035;28;20041;-60
2022/04/01 00:45:41;;;;;;;10.15;7.78;;;;;;;0.82;100.00;96669.00;10354197;28;20048;-60
2022/04/01 00:50:45;;;;;;;8.45;7.55;;;;;;;0.77;100.00;96673.91;10355178;28;20116;-59
2022/04/01 00:55:48;;;;;;;8.10;6.90;;;;;;;0.69;100.00;96666.69;10361689;28;20683;-58
2022/04/01 01:00:53;;;;;;;9.10;6.97;;;;;;;0.65;100.00;96669.75;10364868;28;20133;-60
2022/04/01 01:05:58;;;;;;;9.45;7.25;;;;;;;0.58;100.00;96661.53;10362735;28;20046;-56
2022/04/01 01:11:02;;;;;;;9.23;7.22;;;;;;;0.52;100.00;96667.41;10361745;28;20042;-55
2022/04/01 01:16:08;;;;;;;10.13;6.78;;;;;;;0.48;100.00;96668.66;10363398;28;20044;-59
2022/04/01 01:21:11;;;;;;;8.77;6.70;;;;;;;0.42;100.00;96664.75;10366049;28;20965;-59
2022/04/01 01:26:15;;;;;;;9.15;6.90;;;;;;;0.38;100.00;96663.38;10361654;28;20042;-60
2022/04/01 01:31:19;;;;;;;9.13;6.57;;;;;;;0.38;100.00;96655.44;10360979;28;20069;-59
2022/04/01 01:36:26;;;;;;;7.78;6.97;;;;;;;0.33;100.00;96660.31;10367285;28;20498;-56
2022/04/01 01:41:32;;;;;;;7.65;6.80;;;;;;;0.29;100.00;96652.63;10380525;28;20056;-57
2022/04/01 01:46:36;;;;;;;9.32;6.82;;;;;;;0.28;100.00;96658.06;10361668;28;20092;-59
2022/04/01 01:57:03;;;;;;;6.82;6.00;;;;;;;0.25;100.00;96650.41;10383370;28;20065;-60
2022/04/01 02:02:08;;;;;;;8.00;5.75;;;;;;;0.22;100.00;96648.88;10358379;28;20045;-60
2022/04/01 02:07:15;;;;;;;8.18;5.63;;;;;;;0.21;100.00;96665.75;10365256;28;20040;-56
2022/04/01 02:12:21;;;;;;;7.10;5.55;;;;;;;0.21;100.00;96667.56;10363104;28;20908;-60
2022/04/01 02:17:24;;;;;;;9.13;5.57;;;;;;;0.21;100.00;96672.88;10358130;28;20049;-59
2022/04/01 02:22:29;;;;;;;9.07;5.57;;;;;;;0.20;100.00;96677.31;10373501;28;20054;-56
2022/04/01 02:27:34;;;;;;;7.95;5.35;;;;;;;0.24;100.00;96665.47;10361190;28;20034;-60
2022/04/01 02:32:38;;;;;;;7.88;4.63;;;;;;;0.26;100.00;96667.97;10360953;28;20045;-60
2022/04/01 02:37:49;;;;;;;6.78;4.30;;;;;;;0.27;100.00;96661.69;10360513;28;20137;-58
2022/04/01 02:42:58;;;;;;;4.93;4.00;;;;;;;0.28;100.00;96661.56;10360650;28;20050;-59
2022/04/01 02:48:02;;;;;;;5.13;3.30;;;;;;;0.32;100.00;96638.28;10358797;28;20069;-58
2022/04/01 02:53:17;;;;;;;5.13;3.45;;;;;;;0.38;100.00;96636.88;10354671;28;20521;-56
2022/04/01 02:58:23;;;;;;;8.45;3.50;;;;;;;0.42;100.00;96633.81;10355274;28;20045;-59
2022/04/01 03:03:28;;;;;;;4.90;3.15;;;;;;;0.46;100.00;96637.00;10299590;28;20047;-57
2022/04/01 03:08:33;;;;;;;3.65;3.00;;;;;;;0.52;100.00;96632.94;10300683;28;20483;-56
2022/04/01 03:13:38;;;;;;;6.38;2.90;;;;;;;0.55;100.00;96628.19;10314276;28;20046;-57
2022/04/01 03:19:20;;;;;;;4.45;2.92;;;;;;;0.61;100.00;96634.75;10157763;29;20062;-58
2022/04/01 03:24:25;;;;;;;6.05;2.97;;;;;;;0.59;100.00;96629.59;10278986;28;20054;-59
2022/04/01 03:29:32;;;;;;;3.55;2.80;;;;;;;0.64;100.00;96636.28;10317573;28;20062;-58
2022/04/01 03:34:35;;;;;;;3.78;2.63;;;;;;;0.64;100.00;96636.28;10302697;28;20046;-59
2022/04/01 03:39:39;;;;;;;3.30;2.30;;;;;;;0.60;100.00;96636.56;10313647;28;20440;-53
2022/04/01 03:44:44;;;;;;;4.15;2.47;;;;;;;0.61;100.00;96617.03;10302684;28;20046;-56
2022/04/01 03:50:32;;;;;;;4.13;2.30;;;;;;;0.59;100.00;96626.09;10297300;28;20049;-58
2022/04/01 03:55:39;;;;;;;5.47;2.38;;;;;;;0.52;100.00;96628.50;10301143;28;20046;-58
2022/04/01 04:01:10;;;;;;;4.07;2.28;;;;;;;0.52;100.00;96627.66;10315869;28;20056;-58
2022/04/01 04:06:14;;;;;;;5.53;2.60;;;;;;;0.48;100.00;96626.25;10356416;28;20081;-56
2022/04/01 04:11:19;;;;;;;5.10;2.60;;;;;;;0.44;100.00;96629.22;10362464;28;20046;-61
2022/04/01 04:16:40;;;;;;;3.83;2.30;;;;;;;0.39;100.00;96623.50;10378411;28;20518;-58
2022/04/01 04:22:00;;;;;;;3.57;2.27;;;;;;;0.41;100.00;96650.69;10403931;28;20090;-61
2022/04/01 04:27:55;;;;;;;6.43;2.50;;;;;;;0.37;100.00;96637.88;10346497;28;20050;-59
2022/04/01 04:33:05;;;;;;;5.43;2.22;;;;;;;0.33;100.00;96649.69;10311048;28;20049;-58
2022/04/01 04:38:09;;;;;;;5.63;2.35;;;;;;;0.30;100.00;96667.53;10309880;28;20042;-59
2022/04/01 04:43:18;;;;;;;4.40;2.00;;;;;;;0.30;100.00;96669.38;10322336;28;20070;-56
2022/04/01 04:48:26;;;;;;;5.10;2.10;;;;;;;0.25;100.00;96680.38;10358409;28;20045;-58
2022/04/01 04:53:34;;;;;;;6.43;2.30;;;;;;;0.19;100.00;96675.63;10351345;28;20053;-58
2022/04/01 04:58:40;;;;;;;2.67;2.22;;;;;;;0.14;100.00;96680.53;10353870;28;20056;-57
2022/04/01 05:04:03;;;;;;;4.25;2.00;;;;;;;0.08;100.00;96681.91;10353324;28;20046;-56
2022/04/01 05:09:11;;;;;;;2.83;2.07;;;;;;;0.10;100.00;96693.22;10355439;28;20045;-54
2022/04/01 05:14:35;;;;;;;3.38;1.98;;;;;;;0.06;100.00;96713.00;10353506;28;20068;-56
2022/04/01 05:19:42;;;;;;;3.45;1.98;;;;;;;0.03;100.00;96718.53;10357288;28;20427;-55
2022/04/01 05:24:50;;;;;;;5.55;2.20;;;;;;;-0.07;100.00;96728.28;10357743;28;20125;-57
2022/04/01 05:30:13;;;;;;;4.53;2.25;;;;;;;-0.27;100.00;96746.78;10354835;28;20034;-56
2022/04/01 05:35:35;;;;;;;4.82;2.60;;;;;;;-0.41;100.00;96755.06;10336141;28;20152;-56
2022/04/01 05:40:38;;;;;;;6.32;2.33;;;;;;;-0.51;100.00;96763.81;10358915;28;20575;-58
2022/04/01 05:45:44;;;;;;;3.67;2.53;;;;;;;-0.59;100.00;96786.59;10359797;28;20056;-58
2022/04/01 05:50:51;;;;;;;7.07;2.80;;;;;;;-0.75;100.00;96785.25;10364214;28;20294;-58
2022/04/01 05:55:57;;;;;;;3.97;2.58;;;;;;;-0.80;100.00;96792.75;10364012;28;20116;-57
2022/04/01 06:01:12;;;;;;;3.90;2.75;;;;;;;-0.82;100.00;96782.31;10362917;28;20421;-58
2022/04/01 06:06:22;;;;;;;4.70;2.60;;;;;;;-0.74;100.00;96792.22;10361171;28;20554;-53
2022/04/01 06:11:36;;;;;;;3.42;2.35;;;;;;;-0.69;100.00;96787.41;10361207;28;20073;-53
2022/04/01 06:17:18;;;;;;;5.35;2.60;;;;;;;-0.53;100.00;96796.69;10362365;28;20062;-59
2022/04/01 06:22:29;;;;;;;3.38;2.40;;;;;;;-0.50;100.00;96796.38;10367186;28;20046;-60
2022/04/01 06:27:40;;;;;;;5.53;2.33;;;;;;;-0.41;100.00;96806.16;10367828;28;20061;-57
2022/04/01 06:32:51;;;;;;;6.35;2.28;;;;;;;-0.32;100.00;96799.25;10365180;28;20104;-55
2022/04/01 06:38:04;;;;;;;5.47;2.70;;;;;;;-0.29;100.00;96787.59;10366175;28;20100;-59
2022/04/01 06:43:08;;;;;;;5.43;2.25;;;;;;;-0.15;100.00;96821.59;10362458;28;20045;-58
2022/04/01 06:48:30;;;;;;;4.80;2.40;;;;;;;-0.05;100.00;96817.19;10358324;28;20546;-58
2022/04/01 06:53:53;;;;;;;6.53;2.47;;;;;;;0.04;100.00;96809.41;10357920;28;20507;-59
2022/04/01 06:59:20;;;;;;;4.00;2.20;;;;;;;0.17;100.00;96817.09;10327946;28;20232;-55
2022/04/01 07:04:24;;;;;;;3.05;2.22;;;;;;;0.23;100.00;96841.22;10358176;28;20077;-54
2022/04/01 07:09:28;;;;;;;7.13;2.40;;;;;;;-0.30;100.00;96833.53;10359966;28;20124;-55
2022/04/01 07:14:31;;;;;;;3.10;2.50;;;;;;;-0.48;100.00;96863.22;10363003;28;20073;-60
2022/04/01 07:19:35;;;;;;;3.45;2.78;;;;;;;-0.56;100.00;96865.69;10354016;28;20096;-55
2022/04/01 07:24:40;;;;;;;4.40;2.38;;;;;;;-0.57;100.00;96850.78;10356261;28;20054;-56
2022/04/01 07:29:44;;;;;;;3.60;2.22;;;;;;;-0.75;100.00;96869.88;10359593;28;20062;-54
2022/04/01 07:34:48;;;;;;;3.25;2.50;;;;;;;-0.74;100.00;96863.63;10354944;28;20495;-55
2022/04/01 07:39:58;;;;;;;4.47;2.42;;;;;;;-0.77;100.00;96858.63;10337447;28;20042;-52
2022/04/01 07:45:01;;;;;;;3.70;2.88;;;;;;;-0.68;100.00;96865.78;10335198;28;20172;-60
2022/04/01 07:50:06;;;;;;;3.70;2.40;;;;;;;-0.68;100.00;96863.13;10338227;28;20049;-55
2022/04/01 07:55:13;;;;;;;5.45;2.47;;;;;;;-0.60;100.00;96872.22;10336056;28;20148;-53
2022/04/01 08:00:18;;;;;;;3.92;2.22;;;;;;;-0.54;100.00;96874.34;10335726;28;20049;-58
2022/04/01 08:05:21;;;;;;;5.57;2.20;;;;;;;-0.37;100.00;96870.25;10337446;28;20516;-60
2022/04/01 08:10:26;;;;;;;4.15;2.30;;;;;;;-0.28;100.00;96873.91;10335580;28;20127;-59
2022/04/01 08:15:29;;;;;;;4.82;2.30;;;;;;;-0.24;100.00;96875.34;10337419;28;20054;-55
2022/04/01 08:20:34;;;;;;;4.57;2.20;;;;;;;-0.13;100.00;96888.47;10335606;28;20042;-58
2022/04/01 08:25:39;;;;;;;2.50;2.13;;;;;;;-0.11;100.00;96885.69;10337396;28;20188;-60
2022/04/01 08:30:42;;;;;;;2.97;2.33;;;;;;;-0.11;100.00;96897.13;10334645;28;20123;-60
2022/04/01 08:35:45;;;;;;;5.35;1.95;;;;;;;-0.15;100.00;96903.66;10339358;28;20041;-59
2022/04/01 08:40:52;;;;;;;2.53;2.20;;;;;;;-0.18;100.00;96904.75;10340515;28;20536;-58
2022/04/01 08:45:56;;;;;;;5.18;2.50;;;;;;;-0.20;100.00;96925.22;10336000;28;21332;-53
2022/04/01 08:51:02;;;;;;;4.03;2.35;;;;;;;-0.32;100.00;96932.41;10346478;28;20052;-58
2022/04/01 08:56:07;;;;;;;4.40;2.50;;;;;;;-0.26;100.00;96940.78;10339925;28;20049;-58
2022/04/01 09:01:11;;;;;;;3.28;2.50;;;;;;;-0.43;100.00;96948.34;10350711;28;20145;-56
2022/04/01 09:06:15;;;;;;;3.13;2.50;;;;;;;-0.39;100.00;96954.22;10333561;28;20050;-54
2022/04/01 09:11:20;;;;;;;4.25;3.10;;;;;;;-0.51;100.00;96961.34;10351154;28;20049;-55
2022/04/01 09:16:26;;;;;;;4.82;3.10;;;;;;;-0.51;100.00;96956.94;10354770;28;20046;-58
2022/04/01 09:21:31;;;;;;;3.85;2.95;;;;;;;-0.52;100.00;96962.31;10349667;28;20038;-55
2022/04/01 09:26:40;;;;;;;5.05;3.28;;;;;;;-0.57;100.00;96975.94;10342502;28;20053;-56
2022/04/01 09:31:52;;;;;;;4.20;3.38;;;;;;;-0.60;100.00;96972.72;10336163;28;20045;-58
2022/04/01 09:36:57;;;;;;;4.07;3.40;;;;;;;-0.57;100.00;96988.34;10341232;28;20572;-58
2022/04/01 09:42:11;;;;;;;7.00;3.20;;;;;;;-0.62;100.00;96984.25;10342167;28;20181;-59
2022/04/01 09:47:19;;;;;;;5.28;3.10;;;;;;;-0.62;100.00;96986.06;10343729;28;20161;-58
2022/04/01 09:52:28;;;;;;;3.63;3.28;;;;;;;-0.47;100.00;97002.47;10357206;28;20046;-56
2022/04/01 09:57:34;;;;;;;6.03;3.28;;;;;;;-0.53;100.00;96984.47;10343297;28;20053;-58
2022/04/01 10:02:39;;;;;;;4.10;3.65;;;;;;;-0.42;100.00;97008.25;10355883;28;20536;-58
2022/04/01 10:07:42;;;;;;;4.80;4.40;;;;;;;-0.35;100.00;97004.09;10339852;28;20048;-60
2022/04/01 10:12:50;;;;;;;5.00;4.30;;;;;;;-0.44;100.00;97010.16;10342375;28;20189;-56
2022/04/01 10:17:56;;;;;;;4.40;3.67;;;;;;;-0.40;100.00;97014.22;10340380;28;20046;-57
2022/04/01 10:23:03;;;;;;;4.90;3.53;;;;;;;-0.52;100.00;97005.50;10340934;28;20495;-54
2022/04/01 10:28:13;;;;;;;4.82;3.55;;;;;;;-0.43;100.00;97009.19;10341307;28;20045;-56
2022/04/01 10:33:23;;;;;;;3.67;3.30;;;;;;;-0.37;100.00;97006.03;10342143;28;20115;-58
2022/04/01 10:38:29;;;;;;;4.95;3.63;;;;;;;-0.51;100.00;97012.47;10342448;28;21409;-54
2022/04/01 10:43:43;;;;;;;4.07;3.70;;;;;;;-0.46;100.00;97025.31;10383404;28;20039;-58
2022/04/01 10:54:42;;;;;;;4.13;3.70;;;;;;;-0.45;100.00;97036.72;10343267;28;20074;-63
2022/04/01 10:59:51;;;;;;;3.90;3.50;;;;;;;-0.53;100.00;97051.44;10339383;28;20049;-58
2022/04/01 11:04:54;;;;;;;3.17;2.90;;;;;;;-0.54;100.00;97038.34;10338129;28;20054;-58
2022/04/01 11:10:00;;;;;;;3.75;3.30;;;;;;;-0.50;100.00;97045.03;10334493;28;20050;-57
2022/04/01 11:15:24;;;;;;;3.78;3.00;;;;;;;-0.49;100.00;97044.94;10338398;28;20131;-60
2022/04/01 11:20:29;;;;;;;3.55;3.10;;;;;;;-0.51;100.00;97048.66;10338739;28;20048;-55
2022/04/01 11:25:54;;;;;;;3.22;2.92;;;;;;;-0.51;100.00;97048.66;10339937;28;20076;-59
2022/04/01 11:31:15;;;;;;;3.75;2.90;;;;;;;-0.47;100.00;97056.22;10340903;28;20126;-58
2022/04/01 11:36:20;;;;;;;3.03;2.72;;;;;;;-0.48;100.00;97054.56;10354225;28;20054;-58
2022/04/01 11:41:24;;;;;;;4.25;3.10;;;;;;;-0.35;100.00;97070.25;10339201;28;20735;-58
2022/04/01 11:46:29;;;;;;;5.13;2.90;;;;;;;-0.32;100.00;97075.31;10341296;28;20200;-57
2022/04/01 11:51:32;;;;;;;3.13;2.83;;;;;;;-0.39;100.00;97073.28;10340019;28;20045;-56
2022/04/01 11:56:37;;;;;;;3.20;2.90;;;;;;;-0.32;100.00;97070.00;10342202;28;20044;-58
2022/04/01 12:01:55;;;;;;;4.05;3.00;;;;;;;-0.37;100.00;97061.59;10337630;28;20172;-58
2022/04/01 12:12:33;;;;;;;3.00;2.80;;;;;;;-0.35;100.00;97064.09;10342290;28;20133;-57
2022/04/01 12:17:49;;;;;;;3.30;3.00;;;;;;;-0.28;100.00;97075.03;10340674;28;20542;-56
2022/04/01 12:22:53;;;;;;;3.72;3.42;;;;;;;-0.29;100.00;97068.09;10338161;28;20118;-58
2022/04/01 12:27:57;;;;;;;3.92;3.53;;;;;;;-0.28;100.00;97072.38;10355485;28;20538;-58
2022/04/01 12:33:06;;;;;;;4.38;3.70;;;;;;;-0.21;100.00;97069.09;10338501;28;20065;-57
2022/04/01 12:38:12;;;;;;;3.10;2.80;;;;;;;-0.21;100.00;97079.69;10341870;28;20053;-57
2022/04/01 12:43:47;;;;;;;4.15;3.00;;;;;;;-0.14;100.00;97082.69;10337504;28;20658;-58
2022/04/01 12:48:53;;;;;;;3.00;2.70;;;;;;;-0.10;100.00;97084.13;10357389;28;20058;-56
2022/04/01 12:54:01;;;;;;;4.05;2.80;;;;;;;-0.08;100.00;97091.91;10345075;28;20124;-57
2022/04/01 12:59:06;;;;;;;2.80;2.60;;;;;;;0.00;100.00;97100.09;10347341;28;20062;-58
2022/04/01 13:04:19;;;;;;;4.40;2.90;;;;;;;0.02;100.00;97099.94;10346673;28;20048;-58
2022/04/01 13:09:22;;;;;;;3.92;3.35;;;;;;;0.09;100.00;97095.81;10348863;28;20046;-56
2022/04/01 13:14:31;;;;;;;4.00;3.60;;;;;;;0.15;100.00;97108.56;10345867;28;20212;-59
2022/04/01 13:19:37;;;;;;;4.45;3.65;;;;;;;0.19;100.00;97094.06;10345865;28;20046;-56
2022/04/01 13:24:44;;;;;;;4.60;3.25;;;;;;;0.15;100.00;97100.59;10344941;28;20563;-56
2022/04/01 13:29:47;;;;;;;4.13;3.00;;;;;;;0.10;100.00;97089.53;10347735;28;20046;-52
2022/04/01 13:34:52;;;;;;;4.88;3.20;;;;;;;0.13;100.00;97100.72;10332913;28;20133;-55
2022/04/01 13:39:56;;;;;;;5.20;3.25;;;;;;;0.17;100.00;97103.97;10331040;28;21346;-55
2022/04/01 13:44:59;;;;;;;3.90;3.60;;;;;;;0.20;100.00;97103.69;10336323;28;20196;-56
2022/04/01 13:50:06;;;;;;;3.05;2.75;;;;;;;0.24;100.00;97101.63;10339189;28;20085;-57
2022/04/01 13:55:09;;;;;;;3.20;2.80;;;;;;;0.29;100.00;97105.56;10337203;28;20046;-59
2022/04/01 14:00:14;;;;;;;4.70;2.78;;;;;;;0.32;100.00;97101.84;10343269;28;21074;-58
2022/04/01 14:05:20;;;;;;;4.53;2.88;;;;;;;0.33;100.00;97106.16;10346805;28;20042;-56
2022/04/01 14:10:31;;;;;;;2.85;2.53;;;;;;;0.40;100.00;97109.97;10344379;28;20061;-55
2022/04/01 14:15:34;;;;;;;3.40;2.80;;;;;;;0.46;100.00;97108.59;10348699;28;20085;-57
2022/04/01 14:20:39;;;;;;;3.90;3.05;;;;;;;0.55;100.00;97114.94;10345899;28;20147;-59
2022/04/01 14:25:43;;;;;;;4.10;3.20;;;;;;;0.56;100.00;97106.03;10345773;28;20846;-58
2022/04/01 14:30:47;;;;;;;3.33;3.03;;;;;;;0.58;100.00;97099.59;10358773;28;20046;-58
2022/04/01 14:35:51;;;;;;;3.38;3.00;;;;;;;0.59;100.00;97097.78;10359809;28;20061;-58
2022/04/01 14:40:55;;;;;;;3.35;2.97;;;;;;;0.70;100.00;97102.19;10343664;28;21378;-56
2022/04/01 14:45:59;;;;;;;4.43;2.97;;;;;;;0.75;100.00;97105.28;10345743;28;20050;-56
2022/04/01 14:51:03;;;;;;;5.88;3.00;;;;;;;0.77;100.00;97103.31;10344255;28;20038;-57
2022/04/01 14:56:08;;;;;;;4.60;2.70;;;;;;;0.85;100.00;97106.16;10343707;28;20046;-55
2022/04/01 15:01:11;;;;;;;3.60;2.75;;;;;;;0.84;100.00;97099.19;10358976;28;20542;-53
2022/04/01 15:06:16;;;;;;;2.75;2.42;;;;;;;0.94;100.00;97107.19;10347252;28;20789;-61
2022/04/01 15:11:20;;;;;;;3.55;2.50;;;;;;;1.02;100.00;97107.34;10345634;28;20042;-56
2022/04/01 15:16:23;;;;;;;4.53;2.60;;;;;;;1.09;100.00;97097.06;10346242;28;20041;-58
2022/04/01 15:21:27;;;;;;;3.63;2.40;;;;;;;1.13;100.00;97087.81;10345248;28;20038;-54
2022/04/01 15:26:31;;;;;;;2.88;2.40;;;;;;;1.32;100.00;97091.53;10357669;28;20164;-56
2022/04/01 15:31:34;;;;;;;2.85;2.10;;;;;;;1.43;100.00;97093.22;10345786;28;20316;-56
2022/04/01 15:36:39;;;;;;;2.75;2.20;;;;;;;1.52;100.00;97093.25;10343103;28;20514;-54
2022/04/01 15:41:43;;;;;;;3.15;1.98;;;;;;;1.60;100.00;97086.38;10342104;28;20121;-60
2022/04/01 15:46:50;;;;;;;3.60;1.90;;;;;;;1.70;100.00;97089.91;10343720;28;20054;-55
2022/04/01 15:51:56;;;;;;;2.42;2.08;;;;;;;1.80;100.00;97081.94;10341848;28;20041;-55
2022/04/01 15:57:00;;;;;;;4.80;2.05;;;;;;;1.92;100.00;97094.09;10341712;28;20049;-56
2022/04/01 16:02:05;;;;;;;5.18;2.00;;;;;;;1.97;100.00;97091.03;10339398;28;20642;-59
2022/04/01 16:07:10;;;;;;;5.65;2.22;;;;;;;2.09;100.00;97081.94;10343712;28;20054;-55
2022/04/01 16:12:17;;;;;;;2.92;1.85;;;;;;;2.12;100.00;97089.63;10345484;28;20123;-59
2022/04/01 16:17:21;;;;;;;4.80;1.80;;;;;;;2.22;100.00;97086.97;10343424;28;20128;-56
2022/04/01 16:22:27;;;;;;;3.50;2.90;;;;;;;2.14;100.00;97108.09;10344238;28;20133;-57
2022/04/01 16:27:30;;;;;;;4.25;2.80;;;;;;;2.17;100.00;97109.63;10345491;28;20160;-58
2022/04/01 16:32:34;;;;;;;3.72;2.90;;;;;;;2.21;100.00;97129.63;10355697;28;20045;-62
2022/04/01 16:37:40;;;;;;;3.60;3.15;;;;;;;2.25;100.00;97136.34;10343462;28;20053;-57
2022/04/01 16:42:43;;;;;;;4.30;2.83;;;;;;;2.23;100.00;97136.50;10340261;28;20176;-56
2022/04/01 16:47:47;;;;;;;4.05;2.63;;;;;;;2.24;100.00;97140.78;10343585;28;20048;-57
2022/04/01 16:52:51;;;;;;;5.10;2.80;;;;;;;2.20;100.00;97142.06;10350919;28;20151;-60
2022/04/01 16:57:55;;;;;;;2.63;2.40;;;;;;;2.14;100.00;97151.44;10363394;28;20050;-55
2022/04/01 17:03:01;;;;;;;5.82;2.50;;;;;;;1.98;100.00;97161.78;10433508;28;20049;-58
2022/04/01 17:13:28;;;;;;;2.15;1.48;;;;;;;2.00;100.00;97134.09;10387623;28;20078;-57
2022/04/01 17:18:31;;;;;;;2.63;1.45;;;;;;;2.02;100.00;97135.75;10338965;28;20156;-59
2022/04/01 17:23:35;;;;;;;3.42;1.30;;;;;;;2.01;100.00;97134.94;10338435;28;20050;-60
2022/04/01 17:28:39;;;;;;;3.05;1.38;;;;;;;2.06;100.00;97134.50;10339354;28;20123;-60
2022/04/01 17:33:43;;;;;;;2.03;1.23;;;;;;;2.10;100.00;97128.78;10339918;28;20068;-59
2022/04/01 17:38:52;;;;;;;4.13;1.20;;;;;;;2.12;100.00;97137.47;10345252;28;20069;-61
2022/04/01 17:43:55;;;;;;;4.22;1.30;;;;;;;2.12;100.00;97149.88;10346560;28;20044;-60
2022/04/01 17:49:00;;;;;;;2.17;1.20;;;;;;;2.18;100.00;97153.81;10345929;28;20046;-59
2022/04/01 17:54:04;;;;;;;6.20;1.40;;;;;;;2.18;100.00;97157.31;10345569;28;20755;-60
2022/04/01 17:59:09;;;;;;;4.78;1.25;;;;;;;2.12;100.00;97166.69;10345622;28;20085;-58
2022/04/01 18:04:14;;;;;;;2.05;1.60;;;;;;;2.05;100.00;97178.00;10345746;28;20096;-57
2022/04/01 18:09:24;;;;;;;2.35;1.40;;;;;;;1.99;100.00;97196.19;10364189;28;20065;-60
2022/04/01 18:14:28;;;;;;;2.90;1.30;;;;;;;1.93;100.00;97201.19;10346084;28;20053;-56
2022/04/01 18:19:31;;;;;;;4.72;1.10;;;;;;;1.94;100.00;97208.19;10345267;28;20125;-56
2022/04/01 18:30:00;;;;;;;3.30;1.08;;;;;;;1.98;100.00;97220.19;10345046;28;20033;-58
2022/04/01 18:35:05;;;;;;;3.40;1.30;;;;;;;1.94;100.00;97218.81;10343602;28;20188;-58
2022/04/01 18:40:11;;;;;;;6.40;1.10;;;;;;;1.93;100.00;97225.94;10341821;28;20052;-57
2022/04/01 18:45:16;;;;;;;3.30;1.10;;;;;;;2.05;100.00;97218.69;10343354;28;20077;-60
2022/04/01 18:50:19;;;;;;;2.55;1.10;;;;;;;2.13;100.00;97234.78;10341844;28;20131;-60
2022/04/01 18:55:24;;;;;;;4.30;1.20;;;;;;;2.08;100.00;97239.66;10341567;28;20041;-59
2022/04/01 19:00:27;;;;;;;3.60;1.30;;;;;;;2.07;100.00;97240.63;10341048;28;20172;-57
2022/04/01 19:05:32;;;;;;;4.05;1.45;;;;;;;2.03;100.00;97260.50;10342084;28;20092;-61
2022/04/01 19:10:47;;;;;;;7.13;4.15;;;;;;;2.00;100.00;97255.44;10342609;28;20107;-59
2022/04/01 19:15:52;;;;;;;4.07;1.70;;;;;;;2.04;100.00;97251.53;10340613;28;20044;-58
2022/04/01 19:20:55;;;;;;;9.43;6.00;;;;;;;2.09;100.00;97253.78;10325102;28;20145;-56
2022/04/01 19:26:00;;;;;;;5.93;1.90;;;;;;;2.09;100.00;97265.25;10324472;28;20057;-57
2022/04/01 19:31:03;;;;;;;7.45;3.20;;;;;;;2.11;100.00;97268.59;10343279;28;20161;-55
2022/04/01 19:36:07;;;;;;;3.15;1.90;;;;;;;2.18;100.00;97274.22;10341997;28;20177;-56
2022/04/01 19:41:11;;;;;;;3.65;2.22;;;;;;;2.20;100.00;97261.66;10341792;28;20050;-57
2022/04/01 19:46:15;;;;;;;6.97;4.00;;;;;;;2.32;100.00;97278.28;10338787;28;20161;-58
2022/04/01 19:51:19;;;;;;;7.03;2.50;;;;;;;2.37;100.00;97283.19;10341304;28;20186;-59
2022/04/01 19:56:24;;;;;;;5.65;2.15;;;;;;;2.39;100.00;97295.38;10340769;28;20050;-56
2022/04/01 20:01:29;;;;;;;7.60;1.20;;;;;;;2.37;100.00;97293.81;10342224;28;20057;-56
2022/04/01 20:06:33;;;;;;;3.45;1.30;;;;;;;2.37;100.00;97296.47;10341147;28;20042;-56
2022/04/01 20:11:38;;;;;;;4.95;1.17;;;;;;;2.36;100.00;97310.75;10341879;28;20185;-59
2022/04/01 20:16:41;;;;;;;6.82;1.20;;;;;;;2.30;100.00;97304.16;10338829;28;20046;-56
2022/04/01 20:21:44;;;;;;;7.00;1.20;;;;;;;2.35;100.00;97304.59;10337210;28;20819;-58
2022/04/01 20:26:49;;;;;;;2.55;1.30;;;;;;;2.31;100.00;97303.19;10344382;28;20111;-59
2022/04/01 20:31:53;;;;;;;9.32;1.50;;;;;;;2.26;100.00;97308.91;10342064;28;20053;-58
2022/04/01 20:36:56;;;;;;;5.90;1.20;;;;;;;2.19;100.00;97313.09;10340794;28;20046;-58
2022/04/01 20:42:02;;;;;;;2.33;1.00;;;;;;;2.14;100.00;97308.19;10338262;28;20511;-60
2022/04/01 20:47:10;;;;;;;7.68;1.23;;;;;;;2.15;100.00;97306.38;10333341;28;20148;-59
2022/04/01 20:52:17;;;;;;;4.32;0.90;;;;;;;2.10;100.00;97309.44;10338904;28;20049;-60
2022/04/01 20:57:24;;;;;;;5.78;1.30;;;;;;;2.11;100.00;97319.09;10328266;28;20050;-59
2022/04/01 21:02:34;;;;;;;3.33;1.15;;;;;;;2.13;100.00;97311.84;10339529;28;20064;-58
2022/04/01 21:07:39;;;;;;;5.07;1.20;;;;;;;2.17;100.00;97316.88;10341421;28;20042;-58
2022/04/01 21:12:45;;;;;;;3.15;1.00;;;;;;;2.12;100.00;97322.56;10346557;28;20057;-58
2022/04/01 21:17:48;;;;;;;9.63;1.30;;;;;;;2.11;100.00;97335.03;10347979;28;20184;-58
2022/04/01 21:22:52;;;;;;;8.35;1.10;;;;;;;2.08;100.00;97342.44;10345350;28;20049;-60
2022/04/01 21:27:59;;;;;;;7.13;1.10;;;;;;;2.04;100.00;97349.84;10348654;28;20128;-61
2022/04/01 21:33:04;;;;;;;8.52;1.30;;;;;;;2.02;100.00;97351.78;10345855;28;20077;-59
2022/04/01 21:38:08;;;;;;;3.75;1.10;;;;;;;2.00;100.00;97353.72;10348154;28;20595;-59
2022/04/01 21:43:12;;;;;;;3.25;1.10;;;;;;;1.96;100.00;97354.97;10328026;28;20054;-58
2022/04/01 21:48:17;;;;;;;9.30;1.25;;;;;;;1.87;100.00;97363.72;10345657;28;20052;-58
2022/04/01 21:53:20;;;;;;;2.50;1.10;;;;;;;1.85;100.00;97364.69;10346226;28;20805;-57
2022/04/01 21:58:25;;;;;;;5.70;1.10;;;;;;;1.82;100.00;97372.91;10349873;28;20144;-59
2022/04/01 22:03:28;;;;;;;6.03;1.10;;;;;;;1.73;100.00;97373.72;10346250;28;20152;-56
2022/04/01 22:08:32;;;;;;;4.55;1.35;;;;;;;1.63;100.00;97386.97;10337234;28;20423;-58
2022/04/01 22:13:37;;;;;;;5.15;1.35;;;;;;;1.58;100.00;97378.53;10339458;28;20616;-62
2022/04/01 22:18:41;;;;;;;3.45;1.10;;;;;;;1.59;100.00;97374.09;10338188;28;20220;-60
2022/04/01 22:23:46;;;;;;;4.30;1.15;;;;;;;1.57;100.00;97376.03;10336668;28;20045;-59
2022/04/01 22:28:51;;;;;;;4.57;1.25;;;;;;;1.48;100.00;97386.44;10334840;28;20057;-60
2022/04/01 22:33:58;;;;;;;3.90;1.38;;;;;;;1.42;100.00;97373.69;10344505;28;20057;-60
2022/04/01 22:39:03;;;;;;;7.90;1.38;;;;;;;1.34;100.00;97386.78;10344421;28;20470;-60
2022/04/01 22:44:13;;;;;;;5.07;1.35;;;;;;;1.30;100.00;97390.63;10344058;28;20096;-60
2022/04/01 22:49:18;;;;;;;10.18;1.30;;;;;;;1.22;100.00;97381.53;10344952;28;20056;-59
2022/04/01 22:54:23;;;;;;;5.35;1.40;;;;;;;1.19;100.00;97383.56;10344528;28;20070;-58
2022/04/01 22:59:29;;;;;;;7.78;1.40;;;;;;;1.15;100.00;97412.16;10342141;28;20615;-60
2022/04/01 23:04:33;;;;;;;4.80;1.30;;;;;;;1.01;100.00;97397.41;10342475;28;20048;-57
2022/04/01 23:09:37;;;;;;;3.17;1.40;;;;;;;1.02;100.00;97408.84;10343493;28;20054;-55
2022/04/01 23:14:43;;;;;;;3.15;1.20;;;;;;;0.92;100.00;97435.28;10343408;28;20053;-58
2022/04/01 23:19:46;;;;;;;5.35;1.30;;;;;;;1.01;100.00;97433.66;10342661;28;20050;-59
2022/04/01 23:24:50;;;;;;;3.78;1.20;;;;;;;1.03;100.00;97445.00;10341513;28;20156;-54
2022/04/01 23:29:55;;;;;;;4.25;1.27;;;;;;;1.00;100.00;97437.31;10342383;28;20046;-59
2022/04/01 23:34:58;;;;;;;5.75;1.23;;;;;;;1.02;100.00;97448.63;10339279;28;20052;-56
2022/04/01 23:40:01;;;;;;;5.45;1.30;;;;;;;1.04;100.00;97449.34;10343540;28;20137;-58
2022/04/01 23:45:06;;;;;;;4.80;1.50;;;;;;;1.02;100.00;97440.66;10348533;28;20721;-59
2022/04/01 23:50:10;;;;;;;3.20;1.08;;;;;;;0.99;100.00;97447.06;10343237;28;20140;-59
2022/04/01 23:55:13;;;;;;;5.32;1.30;;;;;;;0.92;100.00;97440.59;10343346;28;20835;-56
